IPOOL LDPL-LIPQ

Flight info

Callsign IPOOL
Flight time 0h 38m
Altitude 3000
Route POR
Aircraft C172/L-ICAO/S

Departure

Time 2026-04-29 19:22
Airport Pula Airport (LDPL)

Arrival

Time 2026-04-29 20:00
Airport Trieste Airport (LIPQ)
Time Latitude Longitude Altitude Speed Heading
2026-04-29 19:03 44.89690 13.92041 205 ft 0 kts 89°
2026-04-29 19:18 44.89690 13.92043 205 ft 1 kts 92°
2026-04-29 19:18 44.89679 13.92063 205 ft 6 kts 163°
2026-04-29 19:18 44.89592 13.92001 201 ft 13 kts 233°
2026-04-29 19:18 44.89518 13.91937 196 ft 13 kts 184°
2026-04-29 19:19 44.89463 13.91931 195 ft 0 kts 189°
2026-04-29 19:20 44.89462 13.91931 195 ft 0 kts 188°
2026-04-29 19:20 44.89461 13.91931 195 ft 2 kts 188°
2026-04-29 19:20 44.89396 13.91926 194 ft 13 kts 180°
2026-04-29 19:20 44.89387 13.91926 193 ft 0 kts 185°
2026-04-29 19:21 44.89348 13.91995 194 ft 16 kts 89°
2026-04-29 19:21 44.89342 13.92366 205 ft 54 kts 96°
2026-04-29 19:21 44.89319 13.92940 312 ft 59 kts 85°
2026-04-29 19:22 44.89322 13.93581 330 ft 70 kts 89°
2026-04-29 19:22 44.89299 13.94276 454 ft 73 kts 95°
2026-04-29 19:22 44.89257 13.94950 659 ft 72 kts 81°
2026-04-29 19:22 44.89497 13.95474 903 ft 61 kts 26°
2026-04-29 19:23 44.89848 13.95365 971 ft 77 kts 277°
2026-04-29 19:23 44.89510 13.94694 1016 ft 88 kts 236°
2026-04-29 19:23 44.89405 13.93839 1145 ft 91 kts 284°
2026-04-29 19:23 44.89691 13.93129 1264 ft 92 kts 308°
2026-04-29 19:24 44.89813 13.92924 1301 ft 92 kts 312°
2026-04-29 19:24 44.90291 13.92309 1430 ft 94 kts 321°
2026-04-29 19:24 44.90838 13.91775 1556 ft 96 kts 327°
2026-04-29 19:24 44.91432 13.91305 1685 ft 102 kts 332°
2026-04-29 19:25 44.92093 13.90859 1814 ft 105 kts 335°
2026-04-29 19:25 44.92773 13.90450 1940 ft 106 kts 337°
2026-04-29 19:25 44.93464 13.90059 2065 ft 107 kts 338°
2026-04-29 19:25 44.94157 13.89679 2189 ft 107 kts 338°
2026-04-29 19:26 44.94853 13.89305 2313 ft 107 kts 339°
2026-04-29 19:26 44.95554 13.88931 2437 ft 107 kts 339°
2026-04-29 19:26 44.96257 13.88559 2563 ft 108 kts 339°
2026-04-29 19:26 44.96944 13.88197 2682 ft 103 kts 339°
2026-04-29 19:27 44.97606 13.87848 2804 ft 101 kts 339°
2026-04-29 19:27 44.98267 13.87497 2928 ft 101 kts 339°
2026-04-29 19:27 44.98951 13.87135 2949 ft 109 kts 339°
2026-04-29 19:27 44.99691 13.86748 2943 ft 115 kts 339°
2026-04-29 19:28 45.00446 13.86355 2941 ft 117 kts 339°
2026-04-29 19:28 45.01221 13.85949 2940 ft 118 kts 339°
2026-04-29 19:28 45.02003 13.85539 2939 ft 119 kts 339°
2026-04-29 19:28 45.02771 13.85134 2939 ft 119 kts 339°
2026-04-29 19:29 45.03558 13.84718 2939 ft 119 kts 339°
2026-04-29 19:29 45.04329 13.84311 2939 ft 119 kts 339°
2026-04-29 19:29 45.05109 13.83898 2939 ft 119 kts 339°
2026-04-29 19:29 45.05888 13.83486 2939 ft 119 kts 339°
2026-04-29 19:30 45.06669 13.83073 2939 ft 119 kts 339°
2026-04-29 19:30 45.07444 13.82662 2939 ft 119 kts 339°
2026-04-29 19:30 45.08232 13.82245 2939 ft 119 kts 339°
2026-04-29 19:30 45.09037 13.81818 2939 ft 119 kts 339°
2026-04-29 19:31 45.09816 13.81405 2939 ft 119 kts 339°
2026-04-29 19:31 45.10597 13.80991 2939 ft 119 kts 339°
2026-04-29 19:31 45.11377 13.80577 2939 ft 119 kts 339°
2026-04-29 19:31 45.12154 13.80165 2939 ft 119 kts 339°
2026-04-29 19:32 45.12926 13.79755 2939 ft 119 kts 339°
2026-04-29 19:32 45.13707 13.79341 2939 ft 119 kts 339°
2026-04-29 19:32 45.14485 13.78927 2939 ft 119 kts 339°
2026-04-29 19:32 45.15271 13.78509 2939 ft 119 kts 339°
2026-04-29 19:33 45.16050 13.78096 2939 ft 119 kts 339°
2026-04-29 19:33 45.16826 13.77683 2939 ft 119 kts 339°
2026-04-29 19:33 45.17610 13.77266 2939 ft 119 kts 339°
2026-04-29 19:33 45.18388 13.76852 2939 ft 119 kts 339°
2026-04-29 19:34 45.19163 13.76440 2939 ft 119 kts 339°
2026-04-29 19:34 45.19946 13.76024 2939 ft 119 kts 339°
2026-04-29 19:34 45.20719 13.75612 2937 ft 116 kts 340°
2026-04-29 19:34 45.21484 13.75206 2938 ft 116 kts 339°
2026-04-29 19:35 45.22234 13.74806 2938 ft 115 kts 339°
2026-04-29 19:35 45.22982 13.74408 2939 ft 114 kts 339°
2026-04-29 19:35 45.23733 13.74007 2939 ft 114 kts 339°
2026-04-29 19:35 45.24479 13.73609 2939 ft 114 kts 339°
2026-04-29 19:36 45.25223 13.73212 2939 ft 114 kts 339°
2026-04-29 19:36 45.25970 13.72814 2939 ft 114 kts 339°
2026-04-29 19:36 45.26712 13.72417 2939 ft 114 kts 339°
2026-04-29 19:36 45.27452 13.72022 2939 ft 114 kts 339°
2026-04-29 19:37 45.28197 13.71625 2939 ft 114 kts 339°
2026-04-29 19:37 45.28692 13.71361 2939 ft 114 kts 339°
2026-04-29 19:37 45.29681 13.70833 2939 ft 114 kts 339°
2026-04-29 19:37 45.30429 13.70433 2939 ft 114 kts 339°
2026-04-29 19:38 45.31168 13.70038 2939 ft 114 kts 339°
2026-04-29 19:38 45.31914 13.69639 2939 ft 114 kts 339°
2026-04-29 19:38 45.32658 13.69242 2939 ft 114 kts 339°
2026-04-29 19:38 45.33403 13.68843 2939 ft 114 kts 339°
2026-04-29 19:39 45.34146 13.68449 2943 ft 113 kts 339°
2026-04-29 19:39 45.34886 13.68059 2957 ft 113 kts 340°
2026-04-29 19:39 45.35624 13.67672 2959 ft 113 kts 340°
2026-04-29 19:39 45.36373 13.67276 2959 ft 113 kts 339°
2026-04-29 19:40 45.37110 13.66880 2959 ft 114 kts 339°
2026-04-29 19:40 45.37849 13.66478 2959 ft 114 kts 339°
2026-04-29 19:40 45.38590 13.66074 2959 ft 114 kts 339°
2026-04-29 19:40 45.39332 13.65672 2959 ft 114 kts 339°
2026-04-29 19:41 45.40083 13.65268 2959 ft 114 kts 339°
2026-04-29 19:41 45.40819 13.64872 2959 ft 114 kts 339°
2026-04-29 19:41 45.41565 13.64471 2959 ft 114 kts 339°
2026-04-29 19:41 45.42305 13.64074 2959 ft 114 kts 339°
2026-04-29 19:42 45.43052 13.63672 2959 ft 114 kts 339°
2026-04-29 19:42 45.43538 13.63412 2959 ft 114 kts 339°
2026-04-29 19:42 45.44532 13.62877 2959 ft 114 kts 339°
2026-04-29 19:42 45.45282 13.62475 2959 ft 114 kts 339°
2026-04-29 19:43 45.46024 13.62076 2959 ft 114 kts 339°
2026-04-29 19:43 45.46767 13.61677 2959 ft 114 kts 339°
2026-04-29 19:43 45.47507 13.61280 2959 ft 114 kts 339°
2026-04-29 19:43 45.48249 13.60901 2959 ft 114 kts 341°
2026-04-29 19:44 45.49007 13.60557 2959 ft 114 kts 343°
2026-04-29 19:44 45.49772 13.60234 2959 ft 114 kts 344°
2026-04-29 19:44 45.50541 13.59920 2959 ft 114 kts 344°
2026-04-29 19:44 45.51305 13.59614 2959 ft 114 kts 344°
2026-04-29 19:45 45.52069 13.59311 2959 ft 114 kts 345°
2026-04-29 19:45 45.52839 13.59007 2959 ft 114 kts 345°
2026-04-29 19:45 45.53601 13.58706 2959 ft 114 kts 345°
2026-04-29 19:45 45.54364 13.58406 2959 ft 114 kts 345°
2026-04-29 19:46 45.55130 13.58104 2959 ft 114 kts 345°
2026-04-29 19:46 45.55896 13.57802 2959 ft 114 kts 345°
2026-04-29 19:46 45.56662 13.57501 2959 ft 114 kts 345°
2026-04-29 19:46 45.57425 13.57200 2959 ft 114 kts 345°
2026-04-29 19:47 45.58192 13.56898 2959 ft 114 kts 345°
2026-04-29 19:47 45.58959 13.56596 2959 ft 114 kts 345°
2026-04-29 19:47 45.59708 13.56211 2958 ft 114 kts 330°
2026-04-29 19:47 45.60372 13.55591 2959 ft 114 kts 326°
2026-04-29 19:48 45.61029 13.54946 2959 ft 114 kts 325°
2026-04-29 19:48 45.61458 13.54524 2959 ft 114 kts 324°
2026-04-29 19:48 45.62288 13.53578 2959 ft 114 kts 321°
2026-04-29 19:48 45.62920 13.52834 2959 ft 114 kts 320°
2026-04-29 19:49 45.63531 13.52115 2959 ft 114 kts 321°
2026-04-29 19:49 45.64144 13.51394 2959 ft 114 kts 321°
2026-04-29 19:49 45.64757 13.50675 2959 ft 114 kts 321°
2026-04-29 19:49 45.65377 13.49948 2959 ft 114 kts 321°
2026-04-29 19:50 45.65982 13.49238 2959 ft 114 kts 321°
2026-04-29 19:50 45.66599 13.48517 2959 ft 114 kts 321°
2026-04-29 19:50 45.67214 13.47798 2959 ft 114 kts 321°
2026-04-29 19:50 45.67833 13.47075 2959 ft 114 kts 321°
2026-04-29 19:51 45.68441 13.46366 2959 ft 114 kts 321°
2026-04-29 19:51 45.69062 13.45641 2959 ft 114 kts 321°
2026-04-29 19:51 45.69672 13.44931 2959 ft 114 kts 321°
2026-04-29 19:51 45.70290 13.44213 2959 ft 114 kts 321°
2026-04-29 19:52 45.70909 13.43492 2959 ft 114 kts 321°
2026-04-29 19:52 45.71527 13.42776 2959 ft 114 kts 321°
2026-04-29 19:52 45.72145 13.42060 2959 ft 114 kts 321°
2026-04-29 19:52 45.72755 13.41353 2959 ft 114 kts 321°
2026-04-29 19:53 45.73377 13.40634 2959 ft 114 kts 321°
2026-04-29 19:53 45.74005 13.39907 2923 ft 118 kts 321°
2026-04-29 19:53 45.74660 13.39152 2829 ft 123 kts 321°
2026-04-29 19:53 45.75342 13.38386 2729 ft 124 kts 324°
2026-04-29 19:54 45.76769 13.36961 2510 ft 127 kts 326°
2026-04-29 19:54 45.77496 13.36241 2355 ft 123 kts 326°
2026-04-29 19:54 45.78171 13.35572 2198 ft 115 kts 326°
2026-04-29 19:55 45.78827 13.34922 2043 ft 112 kts 325°
2026-04-29 19:55 45.79458 13.34297 1891 ft 110 kts 325°
2026-04-29 19:55 45.80090 13.33668 1848 ft 110 kts 324°
2026-04-29 19:55 45.80728 13.33039 1855 ft 112 kts 325°
2026-04-29 19:56 45.81451 13.32586 1849 ft 114 kts 343°
2026-04-29 19:56 45.82246 13.32313 1700 ft 125 kts 349°
2026-04-29 19:56 45.83119 13.32344 1621 ft 124 kts 15°
2026-04-29 19:56 45.83760 13.33094 1586 ft 118 kts 76°
2026-04-29 19:57 45.83599 13.34267 1476 ft 123 kts 109°
2026-04-29 19:57 45.83362 13.35008 1425 ft 122 kts 118°
2026-04-29 19:57 45.82846 13.36259 1131 ft 101 kts 115°
2026-04-29 19:57 45.82733 13.37155 1003 ft 90 kts 90°
2026-04-29 19:58 45.82784 13.37958 956 ft 74 kts 82°
2026-04-29 19:58 45.82825 13.38688 835 ft 73 kts 91°
2026-04-29 19:58 45.82809 13.39423 712 ft 73 kts 91°
2026-04-29 19:58 45.82792 13.40150 613 ft 73 kts 90°
2026-04-29 19:59 45.82800 13.40872 544 ft 73 kts 87°
2026-04-29 19:59 45.82816 13.41590 475 ft 72 kts 88°
2026-04-29 19:59 45.82806 13.42298 414 ft 70 kts 89°
2026-04-29 19:59 45.82809 13.43003 339 ft 70 kts 89°
2026-04-29 20:00 45.82797 13.43711 244 ft 71 kts 93°
2026-04-29 20:00 45.82795 13.44417 145 ft 71 kts 88°
2026-04-29 20:00 45.82793 13.45127 56 ft 71 kts 91°
2026-04-29 20:00 45.82778 13.45724 27 ft 47 kts 86°
2026-04-29 20:01 45.82778 13.46117 27 ft 32 kts 96°
2026-04-29 20:01 45.82774 13.46371 30 ft 19 kts 92°
2026-04-29 20:01 45.82773 13.46545 30 ft 16 kts 84°
2026-04-29 20:01 45.82782 13.46705 29 ft 15 kts 105°
2026-04-29 20:02 45.82716 13.46782 28 ft 10 kts 180°
2026-04-29 20:02 45.82660 13.46785 27 ft 9 kts 163°
2026-04-29 20:02 45.82611 13.46877 26 ft 13 kts 91°
2026-04-29 20:02 45.82610 13.46971 26 ft 14 kts 90°
2026-04-29 20:03 45.82613 13.47161 26 ft 14 kts 89°
2026-04-29 20:03 45.82612 13.47305 27 ft 14 kts 92°
2026-04-29 20:03 45.82612 13.47452 28 ft 14 kts 85°
2026-04-29 20:03 45.82613 13.47587 30 ft 13 kts 92°
2026-04-29 20:04 45.82604 13.47723 30 ft 14 kts 108°
2026-04-29 20:04 45.82568 13.47857 30 ft 14 kts 119°
2026-04-29 20:04 45.82506 13.47926 30 ft 8 kts 206°
2026-04-29 20:04 45.82500 13.47847 30 ft 10 kts 277°
2026-04-29 20:05 45.82505 13.47750 30 ft 9 kts 273°
2026-04-29 20:05 45.82506 13.47648 30 ft 11 kts 265°
2026-04-29 20:05 45.82483 13.47581 28 ft 0 kts 182°
2026-04-29 20:09 45.82484 13.47583 28 ft 0 kts 355°